Time;durP1;ratioP1;P1;durP2;ratioP2;P2;SDS_P1;SDS_P2;PMS_P1;PMS_P2;Temp;Humidity;BMP_temperature;BMP_pressure;BME280_temperature;BME280_humidity;BME280_pressure;Samples;Min_cycle;Max_cycle;Signal;HPM_P1;HPM_P2
2023/03/13 00:00:55;;;;;;;13.02;9.10;;;;;;;11.01;100.00;96327.91;4890351;29;20446;-85
2023/03/13 00:03:21;;;;;;;14.70;10.07;;;;;;;11.05;100.00;96325.53;4901558;29;20052;-84
2023/03/13 00:05:47;;;;;;;16.63;10.30;;;;;;;11.18;100.00;96311.09;4888717;29;20045;-85
2023/03/13 00:08:12;;;;;;;15.88;9.65;;;;;;;11.21;100.00;96313.97;4885459;29;20039;-85
2023/03/13 00:10:39;;;;;;;13.98;9.73;;;;;;;11.13;100.00;96322.38;4901089;29;20115;-84
2023/03/13 00:13:06;;;;;;;14.40;9.18;;;;;;;11.19;100.00;96331.81;4900084;29;20064;-84
2023/03/13 00:15:32;;;;;;;13.68;8.98;;;;;;;11.46;100.00;96325.47;4918558;29;20056;-84
2023/03/13 00:17:57;;;;;;;13.43;8.43;;;;;;;11.40;100.00;96310.78;4890999;29;20503;-85
2023/03/13 00:20:22;;;;;;;12.85;8.90;;;;;;;11.50;100.00;96287.09;4914213;29;20112;-85
2023/03/13 00:22:48;;;;;;;14.15;7.88;;;;;;;11.65;100.00;96301.22;4887195;29;20049;-85
2023/03/13 00:25:31;;;;;;;12.10;7.93;;;;;;;11.61;100.00;96289.69;4882925;29;20041;-86
2023/03/13 00:27:57;;;;;;;9.88;7.20;;;;;;;11.64;100.00;96310.94;4888876;29;20037;-85
2023/03/13 00:30:23;;;;;;;9.50;6.63;;;;;;;11.63;100.00;96298.09;4919204;29;20048;-86
2023/03/13 00:32:48;;;;;;;10.45;7.20;;;;;;;11.76;100.00;96297.50;4888806;29;20040;-85
2023/03/13 00:35:15;;;;;;;10.13;7.40;;;;;;;11.72;100.00;96283.31;4885503;29;20567;-86
2023/03/13 00:37:41;;;;;;;10.45;7.18;;;;;;;11.76;100.00;96291.47;4884676;29;20045;-87
2023/03/13 00:40:07;;;;;;;9.13;6.78;;;;;;;11.70;100.00;96277.56;4883180;29;20123;-86
2023/03/13 00:42:39;;;;;;;10.10;6.20;;;;;;;11.79;100.00;96302.22;4884066;29;20041;-87
2023/03/13 00:45:05;;;;;;;10.27;7.13;;;;;;;12.13;100.00;96270.00;4890433;29;20380;-85
2023/03/13 00:47:30;;;;;;;9.25;6.60;;;;;;;11.89;100.00;96258.53;4888757;29;20041;-87
2023/03/13 00:49:56;;;;;;;8.70;6.70;;;;;;;12.03;100.00;96248.25;4914051;29;20047;-87
2023/03/13 00:52:22;;;;;;;8.75;5.88;;;;;;;11.75;100.00;96232.09;4888287;29;20048;-86
2023/03/13 00:54:47;;;;;;;8.15;6.07;;;;;;;11.89;100.00;96227.00;4919478;29;20051;-85
2023/03/13 00:57:13;;;;;;;7.93;6.10;;;;;;;11.94;100.00;96213.81;4883355;29;20398;-85
2023/03/13 00:59:38;;;;;;;8.35;5.88;;;;;;;12.04;100.00;96213.00;4890413;29;20492;-85
2023/03/13 01:02:04;;;;;;;7.05;5.10;;;;;;;11.80;100.00;96211.03;4890251;29;20380;-85
2023/03/13 01:04:29;;;;;;;6.70;4.88;;;;;;;11.75;100.00;96211.06;4889149;29;20045;-84
2023/03/13 01:06:55;;;;;;;5.80;4.65;;;;;;;12.05;100.00;96232.97;4883247;29;20053;-85
2023/03/13 01:09:23;;;;;;;6.68;3.85;;;;;;;11.85;100.00;96219.66;4886080;29;20498;-86
2023/03/13 01:11:49;;;;;;;5.07;4.07;;;;;;;12.10;100.00;96225.84;4918333;29;20542;-86
2023/03/13 01:14:17;;;;;;;6.63;4.47;;;;;;;12.25;100.00;96218.91;4885721;29;20044;-87
2023/03/13 01:16:43;;;;;;;4.80;3.58;;;;;;;12.20;100.00;96216.31;4916252;29;20419;-86
2023/03/13 01:19:14;;;;;;;4.30;3.70;;;;;;;12.29;100.00;96196.25;4905959;29;20041;-85
2023/03/13 01:21:41;;;;;;;4.47;3.58;;;;;;;12.29;100.00;96188.38;4902078;29;20040;-86
2023/03/13 01:24:06;;;;;;;3.75;3.20;;;;;;;11.92;100.00;96184.41;4886930;29;20044;-86
2023/03/13 01:26:32;;;;;;;4.72;2.75;;;;;;;12.09;100.00;96199.84;4903455;29;20545;-85
2023/03/13 01:28:57;;;;;;;4.75;3.20;;;;;;;12.18;100.00;96203.44;4886296;29;20153;-86
2023/03/13 01:31:26;;;;;;;4.82;2.67;;;;;;;12.39;100.00;96183.03;4890152;29;20040;-86
2023/03/13 01:34:00;;;;;;;4.82;3.05;;;;;;;12.40;100.00;96158.28;4908625;29;20115;-88
2023/03/13 01:36:27;;;;;;;4.45;2.50;;;;;;;12.43;100.00;96151.69;4889528;29;20372;-85
2023/03/13 01:38:55;;;;;;;4.38;2.85;;;;;;;12.61;100.00;96142.31;4905550;29;20040;-84
2023/03/13 01:41:24;;;;;;;2.63;2.33;;;;;;;12.49;100.00;96128.75;4900814;29;20389;-85
2023/03/13 01:43:49;;;;;;;8.73;2.40;;;;;;;12.55;100.00;96112.63;4885572;29;20119;-84
2023/03/13 01:46:24;;;;;;;4.47;2.28;;;;;;;12.55;100.00;96088.94;4907142;29;20051;-84
2023/03/13 01:49:02;;;;;;;6.47;2.95;;;;;;;12.43;100.00;96085.91;4890828;29;20575;-86
2023/03/13 01:51:32;;;;;;;4.65;2.47;;;;;;;12.38;100.00;96083.34;4922526;29;20040;-85
2023/03/13 01:54:11;;;;;;;5.07;2.58;;;;;;;12.41;100.00;96095.94;4891350;29;20062;-84
2023/03/13 01:56:47;;;;;;;3.80;2.47;;;;;;;12.70;100.00;96081.94;4906021;29;20514;-85
2023/03/13 01:59:15;;;;;;;3.35;2.15;;;;;;;12.69;100.00;96104.06;4904691;29;20625;-85
2023/03/13 02:01:44;;;;;;;5.43;2.15;;;;;;;12.35;100.00;96107.56;4888144;29;20060;-85
2023/03/13 02:04:11;;;;;;;2.20;1.75;;;;;;;12.40;100.00;96121.47;4891922;29;20044;-85
2023/03/13 02:06:40;;;;;;;4.53;2.13;;;;;;;12.58;100.00;96137.59;4906226;29;20095;-86
2023/03/13 02:09:11;;;;;;;3.20;2.13;;;;;;;12.38;100.00;96123.59;4905486;29;20079;-86
2023/03/13 02:11:46;;;;;;;3.38;2.08;;;;;;;12.72;100.00;96116.66;4901266;29;20411;-86
2023/03/13 02:14:12;;;;;;;3.30;2.03;;;;;;;12.60;100.00;96117.06;4923618;29;20040;-85
2023/03/13 02:16:38;;;;;;;6.45;2.38;;;;;;;12.70;100.00;96103.00;4919877;29;20447;-87
2023/03/13 02:19:16;;;;;;;4.47;2.45;;;;;;;12.64;100.00;96094.38;4886417;29;20097;-86
2023/03/13 02:21:58;;;;;;;5.47;2.20;;;;;;;12.40;100.00;96070.69;4889087;29;20076;-84
2023/03/13 02:24:34;;;;;;;4.03;2.00;;;;;;;12.84;100.00;96092.56;4887150;29;20048;-86
2023/03/13 02:27:03;;;;;;;6.80;2.33;;;;;;;12.79;100.00;96068.97;4884291;29;20040;-85
2023/03/13 02:29:28;;;;;;;5.38;1.73;;;;;;;12.86;100.00;96079.91;4919316;29;20045;-85
2023/03/13 02:31:54;;;;;;;3.35;1.70;;;;;;;12.56;100.00;96074.72;4886585;29;20415;-86
2023/03/13 02:34:24;;;;;;;3.60;1.70;;;;;;;12.65;100.00;96064.38;4917337;29;20041;-85
2023/03/13 02:36:51;;;;;;;7.15;1.60;;;;;;;12.74;100.00;96048.75;4918976;29;20041;-85
2023/03/13 02:39:21;;;;;;;5.53;1.42;;;;;;;12.85;100.00;96065.19;4888439;29;20052;-86
2023/03/13 02:41:47;;;;;;;3.22;1.30;;;;;;;12.81;100.00;96059.69;4886978;29;20051;-85
2023/03/13 02:44:13;;;;;;;1.45;1.10;;;;;;;12.71;100.00;96046.69;4889489;29;20052;-88
2023/03/13 02:46:51;;;;;;;1.15;1.05;;;;;;;12.71;100.00;96031.66;4918738;29;20044;-85
2023/03/13 02:49:28;;;;;;;1.92;1.10;;;;;;;12.85;100.00;96028.34;4919079;29;20040;-84
2023/03/13 02:51:57;;;;;;;2.95;0.90;;;;;;;13.06;100.00;96026.19;4885214;29;20040;-89
2023/03/13 02:54:34;;;;;;;0.80;0.80;;;;;;;12.79;100.00;96013.69;4889509;29;20507;-86
2023/03/13 02:57:02;;;;;;;3.90;0.80;;;;;;;12.79;100.00;96000.53;4887457;29;20049;-85
2023/03/13 02:59:27;;;;;;;1.08;0.73;;;;;;;12.66;100.00;96002.78;4888354;29;20061;-85
2023/03/13 03:01:53;;;;;;;3.13;1.05;;;;;;;12.53;100.00;96003.47;4886607;29;20041;-86
2023/03/13 03:04:21;;;;;;;1.25;0.90;;;;;;;12.85;100.00;95991.47;4892655;29;20044;-86
2023/03/13 03:06:47;;;;;;;1.27;0.93;;;;;;;13.00;100.00;95980.75;4887487;29;20037;-87
2023/03/13 03:09:12;;;;;;;2.03;1.00;;;;;;;12.84;100.00;95979.41;4884406;29;20048;-85
2023/03/13 03:11:38;;;;;;;1.30;1.15;;;;;;;12.75;100.00;95973.19;4888246;29;20041;-86
2023/03/13 03:14:06;;;;;;;1.30;1.20;;;;;;;12.91;100.00;95969.28;4884720;29;20049;-86
2023/03/13 03:16:32;;;;;;;1.38;1.10;;;;;;;12.74;100.00;95963.72;4919594;29;20096;-86
2023/03/13 03:18:58;;;;;;;2.83;1.75;;;;;;;12.73;100.00;95975.31;4884162;29;20061;-85
2023/03/13 03:21:23;;;;;;;2.63;1.42;;;;;;;12.61;100.00;95968.66;4884347;29;20407;-85
2023/03/13 03:23:49;;;;;;;1.48;1.27;;;;;;;12.87;100.00;95965.66;4887152;29;20076;-85
2023/03/13 03:26:15;;;;;;;2.00;1.13;;;;;;;12.89;100.00;95960.88;4888449;29;20048;-86
2023/03/13 03:28:46;;;;;;;1.75;1.42;;;;;;;12.80;100.00;95950.22;4915522;29;20516;-86
2023/03/13 03:31:13;;;;;;;1.63;1.20;;;;;;;12.79;100.00;95950.53;4885541;29;20105;-83
2023/03/13 03:33:40;;;;;;;2.05;1.20;;;;;;;12.83;100.00;95964.66;4887588;29;20516;-85
2023/03/13 03:36:08;;;;;;;2.45;1.33;;;;;;;13.10;100.00;95950.84;4886342;29;20124;-85
2023/03/13 03:38:35;;;;;;;2.65;1.20;;;;;;;12.97;100.00;95949.72;4883951;29;20032;-87
2023/03/13 03:41:00;;;;;;;2.25;1.45;;;;;;;12.67;100.00;95935.94;4885945;29;20072;-85
2023/03/13 03:43:26;;;;;;;4.90;1.13;;;;;;;13.07;100.00;95945.38;4913743;29;20068;-85
2023/03/13 03:45:52;;;;;;;2.95;1.00;;;;;;;12.90;100.00;95943.25;4890740;29;20051;-83
2023/03/13 03:48:17;;;;;;;0.80;0.80;;;;;;;12.81;100.00;95945.75;4918181;29;20036;-84
2023/03/13 03:50:43;;;;;;;0.90;0.90;;;;;;;12.71;100.00;95947.44;4885983;29;20081;-85
2023/03/13 03:53:08;;;;;;;1.35;0.70;;;;;;;12.69;100.00;95933.78;4884846;29;20484;-85
2023/03/13 03:55:35;;;;;;;1.90;0.90;;;;;;;12.67;100.00;95935.13;4885844;29;20041;-85
2023/03/13 03:58:01;;;;;;;1.75;1.10;;;;;;;12.71;100.00;95936.16;4914898;29;20052;-84
2023/03/13 04:00:26;;;;;;;1.42;0.95;;;;;;;12.52;100.00;95941.38;4885228;29;20040;-85
2023/03/13 04:02:54;;;;;;;3.72;1.25;;;;;;;12.66;100.00;95950.16;4886914;29;20052;-84
2023/03/13 04:05:20;;;;;;;4.28;1.40;;;;;;;12.73;100.00;95939.28;4923896;29;20377;-85
2023/03/13 04:07:46;;;;;;;4.75;1.42;;;;;;;12.65;100.00;95903.84;4885809;29;20527;-84
2023/03/13 04:10:11;;;;;;;8.68;1.63;;;;;;;12.65;100.00;95921.47;4914599;29;20041;-85
2023/03/13 04:12:37;;;;;;;5.95;1.60;;;;;;;12.85;100.00;95908.03;4881869;29;20408;-83
2023/03/13 04:15:03;;;;;;;7.03;1.60;;;;;;;12.55;100.00;95917.13;4887498;29;20478;-86
2023/03/13 04:17:30;;;;;;;4.10;1.90;;;;;;;12.86;100.00;95900.91;4887833;29;20040;-85
2023/03/13 04:19:55;;;;;;;7.22;1.70;;;;;;;12.51;100.00;95885.38;4886167;29;20048;-83
2023/03/13 04:22:20;;;;;;;5.28;1.42;;;;;;;12.64;100.00;95897.03;4884565;29;20052;-84
2023/03/13 04:24:46;;;;;;;6.15;1.50;;;;;;;12.71;100.00;95884.28;4887682;29;20040;-83
2023/03/13 04:27:12;;;;;;;4.40;1.50;;;;;;;12.90;100.00;95866.91;4888017;29;20909;-84
2023/03/13 04:29:37;;;;;;;7.05;1.67;;;;;;;12.86;100.00;95858.81;4882692;29;20044;-84
2023/03/13 04:32:03;;;;;;;10.55;2.33;;;;;;;13.00;100.00;95859.63;4888518;29;20079;-84
2023/03/13 04:34:28;;;;;;;8.00;2.13;;;;;;;13.08;100.00;95875.84;4886882;29;20043;-85
2023/03/13 04:36:54;;;;;;;7.78;1.88;;;;;;;13.10;100.00;95868.44;4912952;29;20049;-84
2023/03/13 04:39:24;;;;;;;8.93;2.10;;;;;;;12.95;100.00;95867.59;4917300;29;20063;-86
2023/03/13 04:41:50;;;;;;;6.00;2.13;;;;;;;13.17;100.00;95858.31;4884743;29;20040;-85
2023/03/13 04:44:16;;;;;;;11.85;2.83;;;;;;;12.91;100.00;95850.81;4881108;29;20048;-86
2023/03/13 04:46:41;;;;;;;11.38;2.42;;;;;;;12.91;100.00;95861.34;4914526;29;20535;-86
2023/03/13 04:49:07;;;;;;;12.27;2.72;;;;;;;12.72;100.00;95853.50;4881499;29;20040;-85
2023/03/13 04:51:32;;;;;;;14.65;2.55;;;;;;;12.33;100.00;95842.22;4881517;29;20059;-84
2023/03/13 04:53:58;;;;;;;11.50;2.50;;;;;;;12.74;100.00;95834.78;4884742;29;20068;-86
2023/03/13 04:56:25;;;;;;;11.50;2.28;;;;;;;12.55;100.00;95811.91;4885499;29;20389;-85
2023/03/13 04:58:51;;;;;;;11.93;3.45;;;;;;;12.69;100.00;95823.25;4916877;29;20077;-84
2023/03/13 05:01:17;;;;;;;18.90;3.33;;;;;;;12.63;100.00;95821.78;4883400;29;20491;-85
2023/03/13 05:03:42;;;;;;;8.00;3.13;;;;;;;12.64;100.00;95810.19;4883064;29;20045;-84
2023/03/13 05:06:07;;;;;;;9.60;2.67;;;;;;;12.38;100.00;95802.72;4888151;29;20045;-85
2023/03/13 05:08:35;;;;;;;16.77;3.47;;;;;;;12.70;100.00;95788.00;4883206;29;20032;-84
2023/03/13 05:11:01;;;;;;;16.90;2.88;;;;;;;12.54;100.00;95768.25;4911214;29;20051;-85
2023/03/13 05:13:27;;;;;;;18.27;3.13;;;;;;;12.36;100.00;95761.97;4912017;29;20040;-85
2023/03/13 05:15:53;;;;;;;14.85;2.90;;;;;;;12.52;100.00;95747.50;4840209;29;1192692;-84
2023/03/13 05:18:18;;;;;;;13.68;2.80;;;;;;;12.18;100.00;95759.06;4890388;29;20042;-84
2023/03/13 05:20:44;;;;;;;18.23;4.07;;;;;;;12.51;100.00;95747.78;4887441;29;20880;-85
2023/03/13 05:23:09;;;;;;;17.27;3.00;;;;;;;12.42;100.00;95739.78;4888710;29;20048;-85
2023/03/13 05:25:34;;;;;;;14.48;2.92;;;;;;;12.33;100.00;95731.00;4889406;29;20037;-86
2023/03/13 05:28:00;;;;;;;14.57;2.53;;;;;;;12.41;100.00;95738.22;4891084;29;20514;-85
2023/03/13 05:30:26;;;;;;;18.65;3.58;;;;;;;12.45;100.00;95727.91;4889034;29;20076;-86
2023/03/13 05:32:52;;;;;;;13.25;2.95;;;;;;;12.34;100.00;95699.13;4917360;29;20032;-86
2023/03/13 05:35:17;;;;;;;13.95;2.75;;;;;;;12.44;100.00;95708.69;4922573;29;20039;-85
2023/03/13 05:37:44;;;;;;;15.98;2.97;;;;;;;12.34;100.00;95722.03;4889574;29;20048;-85
2023/03/13 05:40:10;;;;;;;12.80;3.20;;;;;;;12.32;100.00;95719.66;4921616;29;20045;-85
2023/03/13 05:42:39;;;;;;;15.90;3.65;;;;;;;12.36;100.00;95715.41;4917683;29;20068;-86
2023/03/13 05:45:05;;;;;;;13.18;3.80;;;;;;;12.40;100.00;95724.28;4886301;29;20507;-85
2023/03/13 05:47:30;;;;;;;16.85;3.60;;;;;;;12.31;100.00;95712.84;4891056;29;20041;-86
2023/03/13 05:49:56;;;;;;;16.92;3.30;;;;;;;12.42;100.00;95724.78;4889451;29;20391;-85
2023/03/13 05:52:22;;;;;;;20.92;3.75;;;;;;;12.31;100.00;95706.81;4893337;29;20119;-86
2023/03/13 05:54:47;;;;;;;15.45;3.15;;;;;;;12.24;100.00;95715.09;4889219;29;20052;-84
2023/03/13 05:57:13;;;;;;;16.95;3.50;;;;;;;12.43;100.00;95713.19;4890461;29;20543;-86
2023/03/13 05:59:38;;;;;;;12.43;2.50;;;;;;;12.35;100.00;95708.56;4921801;29;20067;-85
2023/03/13 06:02:04;;;;;;;24.27;4.18;;;;;;;12.64;100.00;95689.16;4916550;29;20507;-85
2023/03/13 06:04:29;;;;;;;17.30;3.58;;;;;;;12.54;100.00;95695.38;4917546;29;20044;-85
2023/03/13 06:06:55;;;;;;;15.73;4.22;;;;;;;12.49;100.00;95692.06;4887321;29;20448;-86
2023/03/13 06:09:20;;;;;;;16.67;3.17;;;;;;;12.41;100.00;95688.25;4892341;29;20532;-86
2023/03/13 06:11:46;;;;;;;15.50;3.70;;;;;;;12.29;100.00;95693.97;4921603;29;20117;-85
2023/03/13 06:14:12;;;;;;;21.50;4.10;;;;;;;12.48;100.00;95693.91;4887213;29;20159;-88
2023/03/13 06:16:38;;;;;;;18.10;3.92;;;;;;;12.51;100.00;95689.91;4885384;29;20072;-85
2023/03/13 06:19:04;;;;;;;15.00;3.42;;;;;;;12.51;100.00;95668.88;4919500;29;20041;-85
2023/03/13 06:21:29;;;;;;;18.65;4.38;;;;;;;12.60;100.00;95629.50;4891168;29;20127;-86
2023/03/13 06:23:55;;;;;;;21.65;4.07;;;;;;;12.35;100.00;95618.38;4914554;29;20116;-85
2023/03/13 06:26:23;;;;;;;20.50;3.85;;;;;;;12.53;100.00;95664.09;4890295;29;20041;-85
2023/03/13 06:28:48;;;;;;;21.23;4.03;;;;;;;12.35;100.00;95695.44;4887477;29;20052;-84
2023/03/13 06:31:14;;;;;;;17.42;3.10;;;;;;;12.31;100.00;95712.84;4887188;29;20380;-85
2023/03/13 06:33:39;;;;;;;13.90;3.05;;;;;;;12.30;100.00;95706.03;4891261;29;20040;-83
2023/03/13 06:36:05;;;;;;;16.10;3.05;;;;;;;12.16;100.00;95695.47;4884917;29;20120;-84
2023/03/13 06:38:31;;;;;;;20.70;3.20;;;;;;;12.15;100.00;95701.81;4887447;29;20512;-84
2023/03/13 06:40:57;;;;;;;16.33;3.63;;;;;;;11.73;100.00;95725.22;4917434;29;20049;-86
2023/03/13 06:43:22;;;;;;;21.23;3.88;;;;;;;11.28;100.00;95715.03;4884852;29;20076;-83
2023/03/13 06:45:48;;;;;;;19.83;3.97;;;;;;;11.20;100.00;95682.31;4917653;29;20440;-84
2023/03/13 06:48:14;;;;;;;17.60;3.38;;;;;;;11.29;100.00;95701.63;4898542;29;20045;-84
2023/03/13 06:50:40;;;;;;;15.48;3.35;;;;;;;11.35;100.00;95678.72;4886160;29;20128;-86
2023/03/13 06:53:06;;;;;;;10.55;2.58;;;;;;;11.18;100.00;95679.16;4884823;29;20202;-85
2023/03/13 06:55:32;;;;;;;12.13;2.10;;;;;;;11.26;100.00;95665.44;4884878;29;20120;-83
2023/03/13 06:57:57;;;;;;;10.07;3.03;;;;;;;11.06;100.00;95686.69;4892204;29;20044;-84
2023/03/13 07:00:23;;;;;;;14.00;2.65;;;;;;;11.40;100.00;95680.50;4913336;29;20127;-82
2023/03/13 07:02:50;;;;;;;17.10;2.63;;;;;;;11.12;100.00;95680.31;4884169;29;20501;-83
2023/03/13 07:05:16;;;;;;;18.52;3.17;;;;;;;11.43;100.00;95679.94;4913696;29;20055;-84
2023/03/13 07:07:42;;;;;;;12.75;3.15;;;;;;;11.18;100.00;95688.91;4886598;29;20107;-86
2023/03/13 07:10:09;;;;;;;23.92;4.22;;;;;;;11.44;100.00;95686.75;4892078;29;20044;-86
2023/03/13 07:12:36;;;;;;;18.30;4.30;;;;;;;11.36;100.00;95679.47;4882764;29;20041;-84
2023/03/13 07:15:01;;;;;;;17.10;2.92;;;;;;;11.27;100.00;95688.00;4917591;29;20068;-88
2023/03/13 07:17:27;;;;;;;20.10;3.28;;;;;;;11.36;100.00;95674.22;4890133;29;20051;-88
2023/03/13 07:19:52;;;;;;;21.20;3.95;;;;;;;11.35;100.00;95673.47;4907216;29;20063;-89
2023/03/13 07:22:18;;;;;;;19.77;4.60;;;;;;;11.37;100.00;95650.34;4911524;29;20381;-89
2023/03/13 07:24:43;;;;;;;20.08;4.05;;;;;;;11.17;100.00;95632.22;4907192;29;20402;-88
2023/03/13 07:27:09;;;;;;;25.30;4.25;;;;;;;11.35;100.00;95641.16;4918468;29;20044;-88
2023/03/13 07:29:34;;;;;;;20.27;3.58;;;;;;;11.62;100.00;95634.50;4905502;29;20052;-90
2023/03/13 07:32:00;;;;;;;16.67;3.47;;;;;;;11.97;100.00;95648.16;4895591;29;20040;-88
2023/03/13 07:34:25;;;;;;;29.85;5.45;;;;;;;11.57;100.00;95646.63;4905424;29;20044;-88
2023/03/13 07:36:51;;;;;;;19.70;3.70;;;;;;;11.52;100.00;95644.06;4906975;29;20040;-87
2023/03/13 07:39:16;;;;;;;27.30;5.20;;;;;;;11.55;100.00;95645.38;4906317;29;20131;-88
2023/03/13 07:41:41;;;;;;;16.52;3.97;;;;;;;11.62;100.00;95634.50;4917602;29;20147;-88
2023/03/13 07:44:07;;;;;;;23.55;4.90;;;;;;;11.49;100.00;95649.91;4919710;29;20143;-89
2023/03/13 07:46:32;;;;;;;19.60;3.20;;;;;;;11.45;100.00;95641.03;4918960;29;20123;-86
2023/03/13 07:48:58;;;;;;;23.88;3.85;;;;;;;11.45;100.00;95620.03;4904553;29;20051;-86
2023/03/13 07:51:25;;;;;;;10.10;3.08;;;;;;;11.08;100.00;95640.69;4920126;29;20465;-88
2023/03/13 07:53:52;;;;;;;11.60;3.53;;;;;;;11.36;100.00;95645.34;4918669;29;20122;-86
2023/03/13 07:56:20;;;;;;;11.85;2.58;;;;;;;11.24;100.00;95646.56;4904102;29;20052;-87
2023/03/13 07:58:46;;;;;;;17.13;3.03;;;;;;;11.23;100.00;95649.47;4921026;29;20072;-84
2023/03/13 08:01:16;;;;;;;14.57;2.45;;;;;;;11.45;100.00;95635.78;4912532;29;20525;-86
2023/03/13 08:03:42;;;;;;;12.38;3.17;;;;;;;11.50;100.00;95642.81;4909813;29;20044;-84
2023/03/13 08:06:12;;;;;;;18.58;2.78;;;;;;;11.67;100.00;95645.69;4900701;29;20514;-87
2023/03/13 08:08:39;;;;;;;13.48;2.70;;;;;;;11.56;100.00;95642.44;4904502;29;21407;-87
2023/03/13 08:11:08;;;;;;;14.75;3.00;;;;;;;11.53;100.00;95653.53;4919985;29;20040;-88
2023/03/13 08:13:35;;;;;;;23.73;4.68;;;;;;;11.82;100.00;95639.47;4902228;29;20068;-89
2023/03/13 08:16:10;;;;;;;16.98;3.03;;;;;;;11.79;100.00;95647.13;4893404;29;20057;-88
2023/03/13 08:18:37;;;;;;;20.40;3.53;;;;;;;11.76;100.00;95616.16;4917801;29;20037;-87
2023/03/13 08:21:05;;;;;;;17.73;3.35;;;;;;;11.95;100.00;95618.75;4887382;29;20049;-89
2023/03/13 08:23:31;;;;;;;16.02;2.90;;;;;;;11.84;100.00;95599.75;4886867;29;20045;-87
2023/03/13 08:26:11;;;;;;;20.13;3.50;;;;;;;12.07;100.00;95607.81;4885351;29;20124;-85
2023/03/13 08:28:37;;;;;;;13.60;3.15;;;;;;;11.93;100.00;95615.63;4882915;29;20056;-86
2023/03/13 08:31:08;;;;;;;13.73;3.22;;;;;;;12.18;100.00;95582.13;4884636;29;20522;-84
2023/03/13 08:33:37;;;;;;;12.85;3.20;;;;;;;12.13;100.00;95568.00;4885861;29;20052;-81
2023/03/13 08:36:23;;;;;;;15.23;3.03;;;;;;;12.45;100.00;95594.53;4918472;29;20044;-84
2023/03/13 08:38:49;;;;;;;6.78;2.20;;;;;;;12.18;100.00;95571.59;4886960;29;20051;-81
2023/03/13 08:41:27;;;;;;;10.88;2.17;;;;;;;12.23;100.00;95559.16;4887035;29;20495;-84
2023/03/13 08:43:53;;;;;;;10.55;2.55;;;;;;;12.22;100.00;95546.31;4919374;29;20491;-82
2023/03/13 08:46:19;;;;;;;8.10;2.42;;;;;;;12.53;100.00;95550.97;4915375;29;20455;-83
2023/03/13 08:48:49;;;;;;;9.18;1.90;;;;;;;12.19;100.00;95546.91;4885882;29;20041;-82
2023/03/13 08:51:14;;;;;;;11.00;2.65;;;;;;;12.33;100.00;95552.94;4883634;29;20058;-82
2023/03/13 08:53:42;;;;;;;10.73;2.63;;;;;;;12.48;100.00;95557.13;4886918;29;20045;-82
2023/03/13 08:56:09;;;;;;;15.13;2.65;;;;;;;12.34;100.00;95533.44;4887667;29;20045;-83
2023/03/13 08:58:34;;;;;;;7.10;2.05;;;;;;;11.76;100.00;95555.75;4887398;29;20049;-84
2023/03/13 09:01:05;;;;;;;9.13;2.20;;;;;;;12.12;100.00;95558.56;4886160;29;20037;-86
2023/03/13 09:03:31;;;;;;;7.93;2.60;;;;;;;12.03;100.00;95536.66;4885487;29;20041;-85
2023/03/13 09:06:01;;;;;;;8.93;1.65;;;;;;;12.23;100.00;95559.16;4882009;29;20515;-84
2023/03/13 09:08:28;;;;;;;7.10;1.50;;;;;;;11.70;100.00;95534.03;4886885;29;20193;-85
2023/03/13 09:11:06;;;;;;;5.85;1.38;;;;;;;12.07;100.00;95545.50;4881603;29;20500;-85
2023/03/13 09:13:34;;;;;;;1.63;0.93;;;;;;;11.83;100.00;95533.28;4916660;29;20169;-85
2023/03/13 09:16:08;;;;;;;3.03;1.02;;;;;;;11.91;100.00;95512.66;4884120;29;20059;-79
2023/03/13 09:18:34;;;;;;;3.30;0.98;;;;;;;12.08;100.00;95505.00;4917192;29;20068;-82
2023/03/13 09:21:00;;;;;;;2.13;0.85;;;;;;;12.27;100.00;95499.66;4885126;29;20044;-81
2023/03/13 09:23:26;;;;;;;2.53;1.02;;;;;;;12.71;100.00;95488.81;4880752;29;20060;-82
2023/03/13 09:25:53;;;;;;;1.60;0.93;;;;;;;12.39;100.00;95496.56;4918437;29;20045;-82
2023/03/13 09:28:19;;;;;;;2.83;1.23;;;;;;;12.39;100.00;95472.09;4887507;29;20037;-82
2023/03/13 09:30:45;;;;;;;7.00;1.40;;;;;;;12.33;100.00;95468.78;4881468;29;20060;-83
2023/03/13 09:33:10;;;;;;;4.75;1.52;;;;;;;12.23;100.00;95485.53;4881216;29;20044;-82
2023/03/13 09:35:39;;;;;;;8.23;1.67;;;;;;;12.49;100.00;95495.56;4880169;29;20119;-81
2023/03/13 09:38:05;;;;;;;4.75;1.52;;;;;;;12.22;100.00;95468.19;4884531;29;20051;-81
2023/03/13 09:40:40;;;;;;;9.57;2.38;;;;;;;12.35;100.00;95479.78;4916256;29;20044;-82
2023/03/13 09:43:35;;;;;;;7.10;1.98;;;;;;;12.36;100.00;95478.69;4914076;29;20044;-83
2023/03/13 09:46:05;;;;;;;5.70;1.67;;;;;;;12.46;100.00;95482.22;4911903;29;20049;-82
2023/03/13 09:48:35;;;;;;;7.38;1.75;;;;;;;12.89;100.00;95467.91;4884735;29;20075;-82
2023/03/13 09:51:06;;;;;;;6.28;1.60;;;;;;;13.05;100.00;95486.75;4916950;29;20539;-82
2023/03/13 09:53:44;;;;;;;4.88;1.50;;;;;;;13.04;100.00;95485.19;4882323;29;20060;-82
2023/03/13 09:56:19;;;;;;;4.20;1.23;;;;;;;12.52;100.00;95486.28;4879966;29;20052;-82
2023/03/13 09:59:14;;;;;;;2.60;1.00;;;;;;;12.75;100.00;95500.28;4886647;29;20060;-83
2023/03/13 10:01:42;;;;;;;2.22;0.90;;;;;;;12.47;100.00;95494.28;4918976;29;20559;-82
2023/03/13 10:04:26;;;;;;;1.70;0.88;;;;;;;12.33;100.00;95508.22;4880157;29;20056;-83
2023/03/13 10:06:52;;;;;;;1.48;1.00;;;;;;;12.83;100.00;95496.94;4914155;29;20164;-80
2023/03/13 10:09:22;;;;;;;0.77;0.68;;;;;;;12.92;100.00;95504.16;4915493;29;20044;-81
2023/03/13 10:11:58;;;;;;;1.92;0.95;;;;;;;12.85;100.00;95489.53;4889173;29;20040;-79
2023/03/13 10:14:45;;;;;;;1.63;0.90;;;;;;;12.61;100.00;95489.78;4885597;29;20099;-79
2023/03/13 10:17:30;;;;;;;1.73;0.93;;;;;;;12.70;100.00;95498.53;4916033;29;20045;-79
2023/03/13 10:20:08;;;;;;;3.33;0.90;;;;;;;13.02;100.00;95498.66;4917535;29;20063;-79
2023/03/13 10:22:36;;;;;;;1.15;0.77;;;;;;;12.91;100.00;95487.56;4890446;29;20444;-79
2023/03/13 10:25:25;;;;;;;1.95;1.10;;;;;;;12.92;100.00;95493.63;4915150;29;20048;-79
2023/03/13 10:27:52;;;;;;;1.95;0.80;;;;;;;12.95;100.00;95470.09;4886583;29;20065;-77
2023/03/13 10:30:31;;;;;;;2.72;1.13;;;;;;;12.88;100.00;95498.69;4888607;29;21654;-79
2023/03/13 10:33:07;;;;;;;2.00;1.15;;;;;;;13.24;100.00;95505.00;4887843;29;20060;-83
2023/03/13 10:35:39;;;;;;;3.55;1.13;;;;;;;13.26;100.00;95502.84;4910570;29;20045;-81
2023/03/13 10:38:09;;;;;;;2.38;1.27;;;;;;;13.35;100.00;95481.84;4885086;29;20136;-80
2023/03/13 10:40:35;;;;;;;2.40;0.80;;;;;;;13.29;100.00;95489.09;4890860;29;20056;-83
2023/03/13 10:43:11;;;;;;;0.88;0.80;;;;;;;13.13;100.00;95499.19;4883737;29;20044;-84
2023/03/13 10:45:37;;;;;;;1.35;0.82;;;;;;;13.25;100.00;95475.75;4884435;29;20087;-84
2023/03/13 10:48:21;;;;;;;4.82;1.33;;;;;;;13.09;100.00;95495.59;4914268;29;20068;-84
2023/03/13 10:50:49;;;;;;;1.35;0.80;;;;;;;13.12;100.00;95508.97;4889145;29;20523;-84
2023/03/13 10:53:30;;;;;;;0.85;0.80;;;;;;;13.07;100.00;95506.47;4916035;29;20057;-84
2023/03/13 10:56:13;;;;;;;1.20;0.70;;;;;;;13.16;100.00;95519.66;4888503;29;20045;-84
2023/03/13 10:58:50;;;;;;;0.60;0.60;;;;;;;13.06;100.00;95525.94;4885576;29;20130;-84
2023/03/13 11:01:39;;;;;;;1.17;0.70;;;;;;;12.99;100.00;95529.00;4889276;29;20056;-83
2023/03/13 11:04:19;;;;;;;0.90;0.90;;;;;;;12.55;100.00;95523.31;4882112;29;20123;-84
2023/03/13 11:06:51;;;;;;;2.38;0.85;;;;;;;12.65;100.00;95527.59;4887385;29;20044;-84
2023/03/13 11:09:18;;;;;;;2.47;0.75;;;;;;;12.71;100.00;95538.81;4915811;29;20064;-83
2023/03/13 11:11:51;;;;;;;3.92;0.90;;;;;;;12.84;100.00;95545.09;4887647;29;20048;-82
2023/03/13 11:14:26;;;;;;;1.88;0.80;;;;;;;12.73;100.00;95534.03;4884819;29;20064;-81
2023/03/13 11:17:30;;;;;;;1.25;0.80;;;;;;;12.97;100.00;95533.78;4886300;29;20139;-82
2023/03/13 11:20:12;;;;;;;5.67;2.80;;;;;;;12.86;100.00;95533.19;4885199;29;20049;-82
2023/03/13 11:22:52;;;;;;;1.73;1.15;;;;;;;13.33;100.00;95534.03;4887966;29;20287;-82
2023/03/13 11:25:20;;;;;;;4.13;1.70;;;;;;;13.14;100.00;95545.53;4896395;29;20044;-83
2023/03/13 11:28:14;;;;;;;3.95;1.38;;;;;;;13.18;100.00;95543.88;4872371;29;20037;-84